Southwestern Research Station, Arizona Weather observations

Data are for 10 minute period ending at time listed.
 Day   Time   Solar   Ave.   Ave.  Ave.  Vector  Max.   Baro.   Total    
  of    of     Rad.   Air    Rel.  Wind   Wind   Wind  Press.  Precip.   
Year   Day            Temp.  Hum.  Speed  Dir.   Gust                    
2026   (PST)  Kw/m2    F      %     mph   deg.    mph    mb.     in.     
-------------------------------------------------------------------------
 245   17:10   0.07   75.4    71    0.0     0     0.0   836.2    0.00 
 245   17:20   0.07   73.5    80    0.1   264     1.9   836.2    0.00 
 245   17:30   0.10   72.9    82    0.7   316     3.1   836.3    0.00 
 245   17:40   0.07   72.9    79    0.3   307     1.7   836.4    0.00 
 245   17:50   0.06   72.2    83    0.1   262     1.5   836.4    0.00 
 245   18:00   0.04   71.3    84    0.3   244     2.0   836.4    0.00 
 245   18:10   0.03   71.0    87    0.1   274     1.5   836.4    0.00 
 245   18:20   0.02   70.5    87    0.2   293     1.5   836.5    0.00 
 245   18:30   0.01   69.8    88    0.0   299     1.0   836.6    0.00 
 245   18:40   0.01   69.1    90    0.2   272     1.0   836.6    0.00 
 245   18:50   0.00   68.8    92    0.2   257     1.5   836.7    0.00 
 245   19:00   0.00   68.4    92    0.2   266     2.0   836.7    0.00 
 245   19:10   0.00   67.8    93    0.6   231     1.6   836.7    0.00 
 245   19:20   0.00   67.2    93    0.8   242     2.3   836.9    0.00 
 245   19:30   0.00   66.9    93    0.9     4     2.9   837.0    0.00 
 245   19:40   0.00   66.6    93    0.5   268     2.4   837.0    0.00 
 245   19:50   0.00   66.4    94    0.4   250     2.7   837.1    0.00 
 245   20:00   0.00   66.3    93    1.1   310     3.9   837.2    0.00 
 245   20:10   0.00   66.5    92    0.3   266     2.1   837.4    0.00 
 245   20:20   0.00   66.2    93    0.1   233     1.4   837.5    0.00 
 245   20:30   0.00   66.0    95    0.1   254     1.5   837.6    0.00 
 245   20:40   0.00   65.9    93    0.2   300     1.7   837.6    0.00 
 245   20:50   0.00   66.0    94    0.0   264     0.1   837.7    0.00 
 245   21:00   0.00   65.5    94    0.6   310     2.1   837.6    0.00 
 245   21:10   0.00   65.5    93    0.0     0     0.0   837.7    0.00 
 245   21:20   0.00   65.4    94    0.0     0     0.0   837.8    0.00 
 245   21:30   0.00   65.2    95    0.8   336     3.1   837.7    0.00 
 245   21:40   0.00   65.1    93    0.7   286     2.8   837.7    0.00 
 245   21:50   0.00   65.2    91    0.3   240     1.7   837.7    0.00 
 245   22:00   0.00   65.0    92    0.3   294     1.6   837.7    0.00 
 245   22:10   0.00   65.0    92    0.1   358     1.1   837.6    0.00 
 245   22:20   0.00   65.0    93    0.7   269     2.7   837.6    0.00 
 245   22:30   0.00   64.8    94    0.0     0     0.0   837.6    0.00 
 245   22:40   0.00   64.7    94    0.5   272     2.2   837.6    0.00 
 245   22:50   0.00   64.6    95    0.0     0     0.0   837.5    0.00 
 245   23:00   0.00   64.3    95    0.0     0     0.0   837.5    0.00 
 245   23:10   0.00   64.2    95    0.2   328     1.5   837.5    0.00 
 245   23:20   0.00   64.3    93    0.9   307     2.0   837.5    0.00 
 245   23:30   0.00   64.6    91    0.1   358     1.2   837.5    0.00 
 245   23:40   0.00   64.5    93    0.1   255     1.2   837.5    0.00 
 245   23:50   0.00   64.3    94    0.0     0     0.0   837.6    0.00 
 246    0:00   0.00   64.1    95    0.0     0     0.0   837.6    0.00 
 246    0:10   0.00   64.0    95    0.0   196     0.8   837.7    0.00 
 246    0:20   0.00   64.0    96    0.1   223     1.1   837.6    0.00 
 246    0:30   0.00   63.7    96    0.1   250     1.0   837.6    0.00 
 246    0:40   0.00   63.8    97    0.8   304     2.7   837.6    0.00 
 246    0:50   0.00   63.8    97    0.1   194     1.6   837.6    0.00 
 246    1:00   0.00   63.9    96    0.0   309     0.7   837.6    0.00 
 246    1:10   0.00   63.9    96    0.1   282     1.0   837.5    0.00 
 246    1:20   0.00   63.9    97    0.1   303     0.9   837.4    0.00 
 246    1:30   0.00   63.9    95    0.0     0     0.0   837.3    0.00 
 246    1:40   0.00   64.1    95    0.4   339     1.8   837.3    0.00 
 246    1:50   0.00   64.0    96    0.1   234     1.4   837.3    0.00 
 246    2:00   0.00   63.8    96    0.1   274     1.4   837.2    0.00 
 246    2:10   0.00   63.8    97    0.2   337     1.4   837.1    0.00 
 246    2:20   0.00   63.7    97    0.3   325     1.8   837.0    0.00 
 246    2:30   0.00   63.9    96    0.3   270     1.9   837.0    0.00 
 246    2:40   0.00   63.9    96    0.0   249     0.4   837.0    0.00 
 246    2:50   0.00   63.8    97    0.4   299     1.5   837.0    0.00 
 246    3:00   0.00   63.8    96    0.3   325     1.6   837.0    0.00 
 246    3:10   0.00   63.9    96    0.2   360     1.6   837.0    0.00 
 246    3:20   0.00   63.7    96    0.2   338     1.2   837.0    0.00 
 246    3:30   0.00   63.7    97    0.1    79     1.0   837.0    0.00 
 246    3:40   0.00   63.6    97    0.1   149     0.9   837.0    0.00 
 246    3:50   0.00   63.5    97    0.2   284     1.7   837.0    0.00 
 246    4:00   0.00   63.5    97    0.1   255     1.3   837.0    0.00 
 246    4:10   0.00   63.3    98    0.4   294     1.8   837.0    0.00 
 246    4:20   0.00   63.1    98    0.2   266     1.1   837.0    0.00 
 246    4:30   0.00   63.0    98    0.2   255     1.1   837.0    0.00 
 246    4:40   0.00   63.1    98    0.1   186     1.2   837.1    0.00 
 246    4:50   0.00   63.0    98    0.1   276     1.2   837.1    0.00 
 246    5:00   0.00   62.9    98    0.1   284     1.3   837.1    0.00 
 246    5:10   0.00   63.0    98    0.0     0     0.0   837.1    0.00 
 246    5:20   0.00   62.9    98    0.0     0     0.0   837.2    0.00 
 246    5:30   0.00   62.9    98    0.0     0     0.0   837.3    0.00 
 246    5:40   0.00   62.8    98    0.1   300     1.0   837.3    0.00 
 246    5:50   0.00   62.7    97    0.2   306     1.2   837.4    0.00 
 246    6:00   0.01   63.0    97    0.0     0     0.0   837.5    0.00 
 246    6:10   0.01   62.9    98    0.0     0     0.0   837.5    0.00 
 246    6:20   0.02   62.7    98    0.0     0     0.0   837.6    0.00 
 246    6:30   0.03   62.7    98    0.0     0     0.0   837.6    0.00 
 246    6:40   0.04   62.8    98    0.1   246     1.1   837.6    0.00 
 246    6:50   0.05   63.1    98    0.0   278     0.4   837.7    0.00 
 246    7:00   0.06   63.4    98    0.0   311     0.6   837.8    0.00 
 246    7:10   0.07   63.9    98    0.0     0     0.0   837.9    0.00 
 246    7:20   0.06   64.2    97    0.0   214     0.4   837.9    0.00 
 246    7:30   0.08   64.4    96    0.0     0     0.0   838.0    0.00 
 246    7:40   0.09   65.1    96    0.0     0     0.0   838.0    0.00 
 246    7:50   0.10   65.7    94    0.0     0     0.0   838.0    0.00 
 246    8:00   0.10   66.4    91    0.0   284     0.4   838.0    0.00 
 246    8:10   0.12   67.0    87    0.0     0     0.0   838.0    0.00 
 246    8:20   0.16   68.1    82    0.0     0     0.0   837.9    0.00 
 246    8:30   0.31   69.3    77    0.6   198     1.8   837.9    0.00 
 246    8:40   0.37   71.1    72    0.2   198     1.7   837.9    0.00 
 246    8:50   0.35   73.2    63    0.4   198     2.0   837.9    0.00 
 246    9:00   0.33   74.2    60    0.4   171     1.6   837.9    0.00 
 246    9:10   0.26   74.0    61    0.4   205     1.8   837.9    0.00 
 246    9:20   0.48   75.0    58    0.6   123     2.6   837.9    0.00 
 246    9:30   0.48   76.3    55    1.2   134     2.7   837.9    0.00 
 246    9:40   0.68   77.3    53    1.7   139     8.2   837.9    0.00 
 246    9:50   0.46   78.3    53    3.3   114     7.4   837.9    0.00 
 246   10:00   0.32   76.2    56    1.8   132     5.6   837.8    0.00 
 246   10:10   0.26   76.2    57    2.0   121     6.9   837.9    0.00 
 246   10:20   0.27   75.8    57    1.8   100     6.8   838.0    0.00 
 246   10:30   0.30   75.8    58    1.4   126     5.6   838.0    0.00 
 246   10:40   0.32   76.3    57    1.8   116     4.3   838.0    0.00 
 246   10:50   0.54   77.2    55    1.9   118     5.0   837.9    0.00 
 246   11:00   0.46   78.1    55    2.2   110     7.4   837.8    0.00 
 246   11:10   0.48   78.1    53    2.7   126     6.4   837.6    0.00 
 246   11:20   0.56   78.4    52    2.5   112     6.6   837.5    0.00 
 246   11:30   0.64   78.3    52    2.2   117     4.7   837.3    0.00 
 246   11:40   0.41   78.9    52    2.5   117     6.6   837.2    0.00 
 246   11:50   0.43   78.3    52    2.3   116     6.4   837.1    0.00 
 246   12:00   0.45   79.0    53    1.8    97     6.2   836.9    0.00 
 246   12:10   0.51   78.7    53    3.6    79    10.4   836.8    0.00 
 246   12:20   0.92   80.2    50    2.6   107     6.6   836.6    0.00 
 246   12:30   1.04   81.6    47    3.6   109     8.4   836.4    0.00 
 246   12:40   0.48   81.1    48    2.0   119     8.2   836.3    0.00 
 246   12:50   0.43   79.5    49    2.1   109     6.5   836.3    0.00 
 246   13:00   0.22   79.0    54    1.8   319     6.1   836.3    0.00 
 246   13:10   0.08   76.3    58    2.2   306     7.9   836.4    0.00 
 246   13:20   0.08   75.1    63    0.8   358     4.2   836.4    0.00 
 246   13:30   0.12   72.6    70    1.6    38     9.7   836.4    0.00 
 246   13:40   0.37   71.7    75    1.7   297     5.8   836.2    0.00 
 246   13:50   0.50   73.5    72    1.3     4     4.7   836.2    0.00 
 246   14:00   0.96   75.5    68    1.3    64     5.3   836.0    0.00 
 246   14:10   0.59   77.8    60    1.6   336     5.7   835.8    0.00 
 246   14:20   0.55   78.5    58    1.7     4     6.2   835.6    0.00 
 246   14:30   0.45   78.3    58    1.3    16     5.3   835.5    0.00 
 246   14:40   0.51   79.2    55    1.2    24     5.3   835.3    0.00 
 246   14:50   0.63   80.1    53    1.7    14     5.3   835.1    0.00 
 246   15:00   0.56   81.8    51    2.0    32     5.7   834.8    0.00 
 246   15:10   0.35   81.9    48    1.4   302     4.6   834.9    0.00 
 246   15:20   0.23   80.5    47    0.8   232     4.0   834.9    0.00 
 246   15:30   0.20   80.0    48    1.7   195     6.9   834.8    0.00 
 246   15:40   0.19   79.9    48    1.6   192     4.3   834.7    0.00 
 246   15:50   0.14   79.8    48    1.1   306     8.8   834.8    0.00 
 246   16:00   0.10   79.3    47    0.7   203     3.7   834.7    0.00 
 246   16:10   0.08   78.8    51    0.6   193     2.9   834.7    0.00 
 246   16:20   0.06   78.0    54    0.7    19     5.2   834.8    0.00 
 246   16:30   0.06   77.0    59    0.9    23     5.6   834.9    0.00 
 246   16:40   0.05   76.3    60    1.8   303     6.6   835.0    0.00 
 246   16:50   0.03   75.1    60    1.7   232     6.3   835.3    0.00 
 246   17:00   0.02   70.8    74    2.2   327     6.3   835.5    0.05 

Return to Southwestern Research Station graphs page.


Western Regional Climate Center,wrcc@dri.edu